KCOT/COT METAR and TAF weather

Enter ICAO airport designator
Station Type Date Time Source
KCOT METAR 2020/04/03 18:21 UTC NOAA

KCOT 031821Z AUTO 13013KT 10SM SCT025 BKN032 BKN060 28/22 A2983 RMK AO2 T02830222


Station Type Date Time Source
KCOT Decoded METAR 2020/04/03 18:21 UTC NOAA

COTULLA-LASALLE COUNTY AIRPORT , TX, United States (KCOT) 28-27N 099-13W 140M
Apr 03, 2020 - 02:21 PM EDT / 2020.04.03 1821 UTC
Wind: from the SE (130 degrees) at 15 MPH (13 KT):0
Visibility: 10 mile(s):0
Sky conditions: mostly cloudy
Temperature: 82.9 F (28.3 C)
Dew Point: 72.0 F (22.2 C)
Relative Humidity: 69%
Pressure (altimeter): 29.83 in. Hg (1010 hPa)
ob: KCOT 031821Z AUTO 13013KT 10SM SCT025 BKN032 BKN060 28/22 A2983 RMK AO2 T02830222
cycle: 18

Station Type Date Time Source
KCOT TAF 2020/04/05 12:21 UTC NOAA

TAF KCOT 051120Z 0512/0612 03005KT 6SM BR OVC007
FM051600 09006KT 6SM BR OVC009
FM052000 11007KT P6SM BKN025
FM060800 10005KT 5SM BR OVC004
AMD NOT SKED

Example: see airport list